Asiatic Wave — 9V8790 — position and weather

sailwx.info

Track history (hours):
 
Tides and Currents Weather Stations Pressure Air Temp Water Temp Dewpoint Dewpoint Depression Visibility Wind Speed Wind Dir Waves Ship Positions

Asiatic Wave

Last reported at 2014-Dec-15 18:21 UTC. Time now 2014-Dec-20 02:18 UTC.
Position N 22°06' E 120°20'.

Length 148 m; draft 8.2 m.

Type: Ship (hazmat cat A). MMSI: 564211000.

Date/timePositionNaut miles runAvg speedWind from/ knotsBaromVisibWave heightAir tempDewpointWater temp
2014-Dec-15 18:21N 22°06' E 120°20'1417.2
2014-Dec-15 17:33N 22°19' E 120°16'1414.0
2014-Dec-15 16:33N 22°33' E 120°14'5 3.4
2014-Dec-15 15:10N 22°34' E 120°19'0 0.0
2014-Dec-15 14:09N 22°34' E 120°19'0 0.0
2014-Dec-15 13:27N 22°34' E 120°19'0 0.0
2014-Dec-15 12:33N 22°34' E 120°19'0 0.0
2014-Dec-15 10:32N 22°34' E 120°19'0 0.0
2014-Dec-15 08:25N 22°34' E 120°19'0 0.0
2014-Dec-15 07:24N 22°34' E 120°19'0 0.0
2014-Dec-15 05:30N 22°34' E 120°19'0 0.1
2014-Dec-15 04:33N 22°33' E 120°19'0 0.4
2014-Dec-15 03:28N 22°33' E 120°20'0 0.0
2014-Dec-15 02:33N 22°33' E 120°20'0 0.0
2014-Dec-15 01:33N 22°33' E 120°20'0 0.0
2014-Dec-15 00:33N 22°33' E 120°20'0 0.0
2014-Dec-14 23:32N 22°33' E 120°20'0 0.0
2014-Dec-14 22:26N 22°33' E 120°20'0 0.0
2014-Dec-14 21:31N 22°33' E 120°20'0 0.0
2014-Dec-14 20:31N 22°33' E 120°20'0 0.0
2014-Dec-14 19:30N 22°33' E 120°20'0 0.0
2014-Dec-14 18:30N 22°33' E 120°20'0 0.0
2014-Dec-14 17:30N 22°33' E 120°20'0 0.2
2014-Dec-14 16:33N 22°33' E 120°19'4 3.5
2014-Dec-14 15:33N 22°32' E 120°16'1414.0
2014-Dec-14 14:34N 22°19' E 120°10'  
2014-Dec-08 10:33N 22°11' E 120°18'1616.2
2014-Dec-08 09:33N 22°27' E 120°13'9 8.7
2014-Dec-08 08:32N 22°33' E 120°19'0 0.2
2014-Dec-08 07:26N 22°34' E 120°19'0 0.0
2014-Dec-08 06:13N 22°34' E 120°19'0 0.0
2014-Dec-08 03:24N 22°34' E 120°19'0 0.0
2014-Dec-08 02:18N 22°34' E 120°19'0 0.5
2014-Dec-08 01:32N 22°33' E 120°20'0 0.0
2014-Dec-08 00:32N 22°33' E 120°20'0 0.0
2014-Dec-07 23:31N 22°33' E 120°20'0 0.0
2014-Dec-07 22:31N 22°33' E 120°20'0 0.0
2014-Dec-07 21:30N 22°33' E 120°20'0 0.0
2014-Dec-07 20:29N 22°33' E 120°20'0 0.0
2014-Dec-07 19:29N 22°33' E 120°20'0 0.0
2014-Dec-07 18:28N 22°33' E 120°20'0 0.0
2014-Dec-07 17:28N 22°33' E 120°20'0 0.0
2014-Dec-07 16:28N 22°33' E 120°20'0 0.0
2014-Dec-07 15:33N 22°33' E 120°20'0 0.0
2014-Dec-07 14:33N 22°33' E 120°20'0 0.0
2014-Dec-07 13:32N 22°33' E 120°20'0 0.0
2014-Dec-07 12:32N 22°33' E 120°20'0 0.0
2014-Dec-07 11:25N 22°33' E 120°20'0 0.0
2014-Dec-07 10:31N 22°33' E 120°20'0 0.0
2014-Dec-07 09:31N 22°33' E 120°20'4 3.9
2014-Dec-07 08:33N 22°32' E 120°16'8 7.7
2014-Dec-07 07:33N 22°25' E 120°12'1312.6
2014-Dec-07 06:33N 22°13' E 120°11'  
Track history (hours):
 
Tides and Currents Weather Stations Pressure Air Temp Water Temp Dewpoint Dewpoint Depression Visibility Wind Speed Wind Dir Waves Ship Positions

Asiatic Wave

Last reported at 2014-Dec-15 18:21 UTC. Time now 2014-Dec-20 02:18 UTC.
Position N 22°06' E 120°20'.

Length 148 m; draft 8.2 m.

Type: Ship (hazmat cat A). MMSI: 564211000.

Date/timePositionNaut miles runAvg speedWind from/ knotsBaromVisibWave heightAir tempDewpointWater temp
2014-Dec-15 18:21N 22°06' E 120°20'1417.2
2014-Dec-15 17:33N 22°19' E 120°16'1414.0
2014-Dec-15 16:33N 22°33' E 120°14'5 3.4
2014-Dec-15 15:10N 22°34' E 120°19'0 0.0
2014-Dec-15 14:09N 22°34' E 120°19'0 0.0
2014-Dec-15 13:27N 22°34' E 120°19'0 0.0
2014-Dec-15 12:33N 22°34' E 120°19'0 0.0
2014-Dec-15 10:32N 22°34' E 120°19'0 0.0
2014-Dec-15 08:25N 22°34' E 120°19'0 0.0
2014-Dec-15 07:24N 22°34' E 120°19'0 0.0
2014-Dec-15 05:30N 22°34' E 120°19'0 0.1
2014-Dec-15 04:33N 22°33' E 120°19'0 0.4
2014-Dec-15 03:28N 22°33' E 120°20'0 0.0
2014-Dec-15 02:33N 22°33' E 120°20'0 0.0
2014-Dec-15 01:33N 22°33' E 120°20'0 0.0
2014-Dec-15 00:33N 22°33' E 120°20'0 0.0
2014-Dec-14 23:32N 22°33' E 120°20'0 0.0
2014-Dec-14 22:26N 22°33' E 120°20'0 0.0
2014-Dec-14 21:31N 22°33' E 120°20'0 0.0
2014-Dec-14 20:31N 22°33' E 120°20'0 0.0
2014-Dec-14 19:30N 22°33' E 120°20'0 0.0
2014-Dec-14 18:30N 22°33' E 120°20'0 0.0
2014-Dec-14 17:30N 22°33' E 120°20'0 0.2
2014-Dec-14 16:33N 22°33' E 120°19'4 3.5
2014-Dec-14 15:33N 22°32' E 120°16'1414.0
2014-Dec-14 14:34N 22°19' E 120°10'  
2014-Dec-08 10:33N 22°11' E 120°18'1616.2
2014-Dec-08 09:33N 22°27' E 120°13'9 8.7
2014-Dec-08 08:32N 22°33' E 120°19'0 0.2
2014-Dec-08 07:26N 22°34' E 120°19'0 0.0
2014-Dec-08 06:13N 22°34' E 120°19'0 0.0
2014-Dec-08 03:24N 22°34' E 120°19'0 0.0
2014-Dec-08 02:18N 22°34' E 120°19'0 0.5
2014-Dec-08 01:32N 22°33' E 120°20'0 0.0
2014-Dec-08 00:32N 22°33' E 120°20'0 0.0
2014-Dec-07 23:31N 22°33' E 120°20'0 0.0
2014-Dec-07 22:31N 22°33' E 120°20'0 0.0
2014-Dec-07 21:30N 22°33' E 120°20'0 0.0
2014-Dec-07 20:29N 22°33' E 120°20'0 0.0
2014-Dec-07 19:29N 22°33' E 120°20'0 0.0
2014-Dec-07 18:28N 22°33' E 120°20'0 0.0
2014-Dec-07 17:28N 22°33' E 120°20'0 0.0
2014-Dec-07 16:28N 22°33' E 120°20'0 0.0
2014-Dec-07 15:33N 22°33' E 120°20'0 0.0
2014-Dec-07 14:33N 22°33' E 120°20'0 0.0
2014-Dec-07 13:32N 22°33' E 120°20'0 0.0
2014-Dec-07 12:32N 22°33' E 120°20'0 0.0
2014-Dec-07 11:25N 22°33' E 120°20'0 0.0
2014-Dec-07 10:31N 22°33' E 120°20'0 0.0
2014-Dec-07 09:31N 22°33' E 120°20'4 3.9
2014-Dec-07 08:33N 22°32' E 120°16'8 7.7
2014-Dec-07 07:33N 22°25' E 120°12'1312.6
2014-Dec-07 06:33N 22°13' E 120°11'  

Dump ship's entire track history